Time;durP1;ratioP1;P1;durP2;ratioP2;P2;SDS_P1;SDS_P2;PMS_P1;PMS_P2;Temp;Humidity;BMP_temperature;BMP_pressure;BME280_temperature;BME280_humidity;BME280_pressure;Samples;Min_cycle;Max_cycle;Signal;HPM_P1;HPM_P2
2022/05/10 00:00:19;;;;;;;41.03;19.40;;;15.50;28.90;;;;;;5045299;28;20465;-57
2022/05/10 00:02:49;;;;;;;37.23;17.60;;;15.50;28.90;;;;;;5044073;28;20513;-58
2022/05/10 00:05:19;;;;;;;42.00;18.50;;;15.50;29.20;;;;;;5043720;28;21119;-57
2022/05/10 00:07:45;;;;;;;39.37;18.30;;;15.50;29.10;;;;;;5037054;28;20531;-57
2022/05/10 00:10:12;;;;;;;40.73;19.37;;;15.50;29.10;;;;;;5035941;28;20459;-58
2022/05/10 00:12:39;;;;;;;39.47;18.43;;;15.40;29.40;;;;;;5044061;28;20470;-57
2022/05/10 00:15:07;;;;;;;40.60;19.83;;;15.30;29.50;;;;;;5043887;28;20485;-58
2022/05/10 00:17:39;;;;;;;43.60;17.63;;;15.20;29.80;;;;;;5041845;28;20462;-58
2022/05/10 00:20:09;;;;;;;39.20;17.53;;;15.10;29.60;;;;;;5037579;28;20466;-56
2022/05/10 00:22:37;;;;;;;39.97;18.30;;;15.00;29.10;;;;;;5056087;28;20497;-57
2022/05/10 00:25:06;;;;;;;40.30;18.57;;;14.90;29.20;;;;;;5040825;28;20497;-57
2022/05/10 00:27:32;;;;;;;37.97;17.30;;;14.90;29.40;;;;;;5035992;28;20483;-58
2022/05/10 00:30:00;;;;;;;38.97;17.27;;;14.70;30.00;;;;;;5039626;28;20477;-56
2022/05/10 00:32:32;;;;;;;41.90;18.47;;;14.70;30.50;;;;;;5035973;28;20966;-58
2022/05/10 00:34:59;;;;;;;42.00;17.20;;;14.60;30.50;;;;;;5038851;28;20481;-56
2022/05/10 00:37:26;;;;;;;39.87;17.73;;;14.50;30.70;;;;;;5045295;28;20462;-57
2022/05/10 00:39:54;;;;;;;39.70;19.80;;;14.50;30.60;;;;;;5034659;28;20467;-57
2022/05/10 00:42:27;;;;;;;39.17;19.40;;;14.50;30.80;;;;;;5034553;28;20483;-57
2022/05/10 00:44:59;;;;;;;40.13;20.10;;;14.50;31.10;;;;;;5043207;28;20485;-57
2022/05/10 00:47:29;;;;;;;45.30;21.07;;;14.50;31.40;;;;;;5039796;28;20462;-58
2022/05/10 00:50:02;;;;;;;40.20;20.27;;;14.50;31.30;;;;;;5038466;28;20497;-58
2022/05/10 00:52:34;;;;;;;40.10;20.77;;;14.50;31.60;;;;;;5031740;28;20470;-57
2022/05/10 00:55:09;;;;;;;40.80;20.37;;;14.50;31.60;;;;;;5034346;28;21054;-57
2022/05/10 00:57:40;;;;;;;41.47;19.33;;;14.50;31.70;;;;;;5038511;28;20454;-57
2022/05/10 01:00:11;;;;;;;39.17;19.37;;;14.50;31.70;;;;;;5032861;28;20468;-58
2022/05/10 01:02:50;;;;;;;42.53;20.00;;;14.40;31.80;;;;;;5041018;28;20474;-57
2022/05/10 01:05:23;;;;;;;42.20;20.63;;;14.40;32.10;;;;;;5034218;28;20486;-56
2022/05/10 01:07:55;;;;;;;40.60;20.23;;;14.40;31.80;;;;;;5039161;28;20537;-57
2022/05/10 01:10:35;;;;;;;43.30;19.80;;;14.50;31.70;;;;;;5040900;28;20474;-58
2022/05/10 01:13:15;;;;;;;43.10;20.63;;;14.40;32.00;;;;;;5043912;28;20541;-56
2022/05/10 01:15:52;;;;;;;38.00;17.77;;;14.40;31.70;;;;;;5036467;28;20478;-56
2022/05/10 01:18:22;;;;;;;39.03;17.20;;;14.40;31.80;;;;;;5038281;28;20450;-57
2022/05/10 01:20:52;;;;;;;40.37;18.70;;;14.30;32.00;;;;;;5038217;28;21282;-57
2022/05/10 01:23:58;;;;;;;45.53;19.50;;;14.30;31.90;;;;;;5037889;28;20639;-57
2022/05/10 01:26:40;;;;;;;40.83;18.90;;;14.30;32.50;;;;;;5039857;28;20474;-56
2022/05/10 01:29:13;;;;;;;42.53;19.83;;;14.20;32.10;;;;;;5034452;28;20486;-56
2022/05/10 01:31:45;;;;;;;43.53;20.03;;;14.20;32.10;;;;;;5042130;28;20477;-57
2022/05/10 01:34:16;;;;;;;44.03;20.47;;;14.20;32.40;;;;;;5039799;28;20458;-56
2022/05/10 01:36:47;;;;;;;40.77;19.27;;;14.20;32.50;;;;;;5036342;28;20533;-57
2022/05/10 01:39:20;;;;;;;40.20;19.27;;;14.20;32.40;;;;;;5038581;28;20462;-55
2022/05/10 01:41:53;;;;;;;44.93;20.90;;;14.20;32.30;;;;;;5034647;28;20469;-56
2022/05/10 01:44:27;;;;;;;42.53;20.87;;;14.10;32.20;;;;;;5036758;28;20458;-59
2022/05/10 01:46:59;;;;;;;43.77;20.57;;;14.10;32.70;;;;;;5037504;28;20457;-57
2022/05/10 01:49:32;;;;;;;42.23;21.43;;;14.10;32.90;;;;;;5041282;28;20477;-57
2022/05/10 01:52:06;;;;;;;43.30;22.13;;;14.10;32.90;;;;;;5037953;28;20466;-56
2022/05/10 01:54:58;;;;;;;42.67;21.30;;;14.00;32.90;;;;;;5033051;28;20483;-58
2022/05/10 01:57:26;;;;;;;42.80;21.53;;;14.00;33.30;;;;;;5028385;28;20493;-57
2022/05/10 02:00:00;;;;;;;43.63;21.43;;;13.90;33.20;;;;;;5042213;28;20470;-56
2022/05/10 02:02:29;;;;;;;43.60;21.27;;;13.90;33.80;;;;;;5036692;28;20479;-56
2022/05/10 02:05:00;;;;;;;43.00;22.17;;;13.90;33.30;;;;;;5042581;28;21157;-56
2022/05/10 02:07:30;;;;;;;48.87;23.33;;;13.80;33.40;;;;;;5041046;28;20461;-57
2022/05/10 02:10:03;;;;;;;43.57;21.47;;;13.80;34.00;;;;;;5038918;28;20484;-58
2022/05/10 02:12:38;;;;;;;43.70;22.13;;;13.80;33.70;;;;;;5038425;28;20513;-57
2022/05/10 02:15:11;;;;;;;45.33;21.50;;;13.80;33.80;;;;;;5031039;28;20509;-56
2022/05/10 02:17:44;;;;;;;43.37;20.10;;;13.70;33.70;;;;;;5044733;28;20462;-57
2022/05/10 02:20:16;;;;;;;43.67;20.57;;;13.70;33.40;;;;;;5035116;28;21012;-57
2022/05/10 02:22:48;;;;;;;44.30;20.33;;;13.70;33.80;;;;;;5043639;28;21103;-57
2022/05/10 02:25:18;;;;;;;43.03;19.87;;;13.60;33.70;;;;;;5035868;28;20475;-56
2022/05/10 02:27:48;;;;;;;42.27;19.70;;;13.60;33.80;;;;;;5030129;28;20465;-55
2022/05/10 02:30:19;;;;;;;45.43;20.57;;;13.60;33.50;;;;;;5028731;28;20463;-56
2022/05/10 02:33:08;;;;;;;43.10;19.87;;;13.50;33.30;;;;;;5043032;28;20458;-56
2022/05/10 02:35:40;;;;;;;43.70;21.83;;;13.50;33.40;;;;;;5039182;28;20478;-58
2022/05/10 02:38:09;;;;;;;43.93;20.80;;;13.40;33.50;;;;;;5037058;28;20458;-59
2022/05/10 02:40:40;;;;;;;42.97;20.53;;;13.40;33.40;;;;;;5041275;28;20462;-56
2022/05/10 02:43:07;;;;;;;44.43;21.67;;;13.40;33.80;;;;;;5036849;28;20544;-56
2022/05/10 02:45:37;;;;;;;45.43;21.97;;;13.40;33.90;;;;;;5040871;28;20474;-58
2022/05/10 02:48:05;;;;;;;42.17;21.40;;;13.30;33.90;;;;;;5043734;28;20468;-58
2022/05/10 02:50:34;;;;;;;48.20;22.70;;;13.30;34.20;;;;;;5049718;28;20966;-57
2022/05/10 02:53:01;;;;;;;46.43;23.60;;;13.30;34.30;;;;;;5048448;28;20465;-57
2022/05/10 02:55:34;;;;;;;41.90;22.17;;;13.20;34.70;;;;;;5041436;28;20489;-56
2022/05/10 02:58:07;;;;;;;46.47;23.23;;;13.30;35.70;;;;;;5036978;28;20471;-57
2022/05/10 03:00:35;;;;;;;49.03;25.20;;;13.30;35.70;;;;;;5041403;28;20472;-56
2022/05/10 03:03:12;;;;;;;46.60;25.73;;;13.30;36.10;;;;;;5036285;28;20822;-57
2022/05/10 03:05:39;;;;;;;46.77;24.73;;;13.20;36.10;;;;;;5038380;28;20871;-56
2022/05/10 03:08:06;;;;;;;46.20;23.97;;;13.30;36.10;;;;;;5037660;28;20467;-56
2022/05/10 03:10:33;;;;;;;46.03;24.37;;;13.30;36.50;;;;;;5041131;28;20458;-58
2022/05/10 03:13:01;;;;;;;49.40;25.80;;;13.30;37.00;;;;;;5044374;28;20521;-57
2022/05/10 03:15:28;;;;;;;45.90;25.20;;;13.30;37.70;;;;;;5048540;28;20477;-57
2022/05/10 03:17:58;;;;;;;44.80;24.77;;;13.30;37.80;;;;;;5039156;28;20467;-57
2022/05/10 03:20:25;;;;;;;48.13;25.90;;;13.30;37.50;;;;;;5036714;28;20458;-57
2022/05/10 03:22:52;;;;;;;48.10;24.37;;;13.30;37.00;;;;;;5037989;28;20451;-56
2022/05/10 03:25:18;;;;;;;44.97;22.70;;;13.30;37.10;;;;;;5043785;28;20510;-59
2022/05/10 03:27:45;;;;;;;47.47;23.73;;;13.20;37.30;;;;;;5043043;28;20457;-57
2022/05/10 03:30:13;;;;;;;45.23;23.23;;;13.20;36.80;;;;;;5037947;28;20490;-55
2022/05/10 03:32:40;;;;;;;45.83;22.53;;;13.20;36.60;;;;;;5039903;28;20475;-57
2022/05/10 03:35:09;;;;;;;46.20;21.47;;;13.20;36.40;;;;;;5047893;28;20486;-57
2022/05/10 03:37:36;;;;;;;47.60;22.77;;;13.20;36.20;;;;;;5051480;28;20985;-57
2022/05/10 03:40:02;;;;;;;52.83;26.57;;;13.10;36.20;;;;;;5049754;28;20504;-56
2022/05/10 03:42:29;;;;;;;48.73;24.07;;;13.00;36.60;;;;;;5041099;28;20472;-57
2022/05/10 03:44:56;;;;;;;45.13;22.27;;;13.00;36.70;;;;;;5046736;28;20478;-56
2022/05/10 03:47:26;;;;;;;48.33;23.50;;;13.00;36.60;;;;;;5046160;28;21038;-54
2022/05/10 03:49:53;;;;;;;45.67;23.07;;;13.00;36.40;;;;;;5039491;28;21199;-57
2022/05/10 03:52:21;;;;;;;51.50;26.17;;;13.00;36.30;;;;;;5037499;28;20551;-57
2022/05/10 03:54:49;;;;;;;47.47;26.07;;;13.00;36.30;;;;;;5036904;28;20494;-56
2022/05/10 03:57:16;;;;;;;51.97;24.63;;;13.00;36.40;;;;;;5042929;28;20859;-57
2022/05/10 03:59:42;;;;;;;47.30;24.20;;;13.00;36.20;;;;;;5039779;28;20455;-57
2022/05/10 04:02:11;;;;;;;48.63;24.10;;;13.00;36.10;;;;;;5040757;28;20482;-56
2022/05/10 04:04:38;;;;;;;49.03;25.77;;;12.90;36.10;;;;;;5049906;28;20486;-57
2022/05/10 04:07:07;;;;;;;49.43;27.47;;;13.00;36.40;;;;;;5033147;28;20461;-57
2022/05/10 04:09:35;;;;;;;49.67;24.50;;;12.90;36.60;;;;;;5041630;28;20482;-56
2022/05/10 04:12:02;;;;;;;45.80;22.53;;;13.00;36.60;;;;;;5045836;28;20462;-56
2022/05/10 04:14:29;;;;;;;44.83;22.40;;;12.90;36.40;;;;;;5036715;28;20845;-56
2022/05/10 04:16:56;;;;;;;46.60;22.47;;;12.90;36.50;;;;;;5039146;28;20463;-55
2022/05/10 04:19:22;;;;;;;49.87;23.23;;;12.90;36.70;;;;;;5042426;28;20873;-58
2022/05/10 04:21:50;;;;;;;46.70;21.30;;;12.80;37.10;;;;;;5036360;28;20459;-58
2022/05/10 04:24:17;;;;;;;49.80;23.60;;;12.80;37.10;;;;;;5045979;28;20507;-56
2022/05/10 04:26:45;;;;;;;44.63;20.80;;;12.80;37.20;;;;;;5034974;28;20462;-58
2022/05/10 04:29:12;;;;;;;45.70;20.77;;;12.80;37.20;;;;;;5041365;28;21003;-56
2022/05/10 04:31:39;;;;;;;45.60;21.90;;;12.80;37.20;;;;;;5036032;28;21805;-55
2022/05/10 04:34:06;;;;;;;45.40;20.97;;;12.80;37.20;;;;;;5041140;28;20468;-56
2022/05/10 04:36:33;;;;;;;45.50;22.03;;;12.80;37.10;;;;;;5034588;28;21201;-57
2022/05/10 04:38:59;;;;;;;46.67;20.57;;;12.80;37.20;;;;;;5042368;28;20451;-57
2022/05/10 04:41:29;;;;;;;43.47;20.50;;;12.80;37.50;;;;;;5035951;28;20454;-57
2022/05/10 04:43:59;;;;;;;42.80;20.20;;;12.80;37.60;;;;;;5041560;28;20968;-56
2022/05/10 04:46:27;;;;;;;45.00;20.70;;;12.90;37.90;;;;;;5043300;28;20478;-58
2022/05/10 04:48:53;;;;;;;46.50;20.87;;;13.00;37.60;;;;;;5039567;28;20509;-57
2022/05/10 04:51:20;;;;;;;45.23;20.03;;;13.00;37.80;;;;;;5039721;28;20469;-57
2022/05/10 04:53:47;;;;;;;43.67;20.20;;;13.10;38.10;;;;;;5042359;28;20836;-57
2022/05/10 04:56:14;;;;;;;43.33;19.50;;;13.20;38.30;;;;;;5039061;28;20992;-58
2022/05/10 04:58:41;;;;;;;42.80;19.87;;;13.30;38.70;;;;;;5039193;28;20960;-57
2022/05/10 05:01:12;;;;;;;41.07;18.10;;;13.60;38.80;;;;;;5043078;28;20501;-57
2022/05/10 05:03:43;;;;;;;43.63;18.60;;;14.20;37.80;;;;;;5044230;28;20465;-57
2022/05/10 05:06:09;;;;;;;51.83;18.37;;;14.70;36.60;;;;;;5042953;28;20486;-57
2022/05/10 05:08:36;;;;;;;40.50;17.63;;;15.30;35.30;;;;;;5037016;28;20454;-56
2022/05/10 05:11:03;;;;;;;39.90;15.53;;;15.90;33.80;;;;;;5040110;28;20465;-57
2022/05/10 05:13:30;;;;;;;39.17;15.47;;;16.50;31.80;;;;;;5045625;28;20458;-57
2022/05/10 05:15:57;;;;;;;41.13;15.10;;;17.10;29.70;;;;;;5033343;28;20469;-58
2022/05/10 05:18:25;;;;;;;43.47;15.63;;;17.60;27.70;;;;;;5032565;28;20470;-57
2022/05/10 05:20:52;;;;;;;39.57;15.30;;;18.10;26.60;;;;;;5044156;28;20459;-57
2022/05/10 05:23:22;;;;;;;40.60;15.27;;;18.60;25.40;;;;;;5050032;28;20457;-58
2022/05/10 05:25:49;;;;;;;38.80;14.33;;;19.10;23.80;;;;;;5038938;28;20466;-58
2022/05/10 05:28:16;;;;;;;38.47;14.50;;;19.70;22.40;;;;;;5032963;28;20459;-57
2022/05/10 05:30:45;;;;;;;41.77;14.53;;;20.30;21.00;;;;;;5041534;28;20455;-56
2022/05/10 05:33:12;;;;;;;37.90;14.20;;;20.90;19.70;;;;;;5036653;28;20455;-56
2022/05/10 05:35:41;;;;;;;38.80;15.90;;;21.50;18.30;;;;;;5039534;28;20544;-57
2022/05/10 05:38:08;;;;;;;37.80;14.77;;;22.00;16.80;;;;;;5036513;28;20455;-56
2022/05/10 05:40:36;;;;;;;36.13;13.50;;;22.40;15.50;;;;;;5031345;28;20439;-57
2022/05/10 05:43:04;;;;;;;38.40;13.47;;;22.80;15.10;;;;;;5032437;28;20450;-57
2022/05/10 05:45:30;;;;;;;37.17;14.30;;;23.20;14.20;;;;;;5037567;28;20474;-56
2022/05/10 05:47:57;;;;;;;36.90;14.17;;;23.80;13.80;;;;;;5037283;28;20458;-57
2022/05/10 05:50:26;;;;;;;37.57;14.40;;;24.30;12.80;;;;;;5036014;28;21133;-58
2022/05/10 05:52:55;;;;;;;37.07;15.47;;;24.80;11.40;;;;;;5039290;28;20458;-58
2022/05/10 05:55:22;;;;;;;35.47;14.57;;;25.10;10.70;;;;;;5039331;28;20531;-57
2022/05/10 05:57:49;;;;;;;37.17;14.70;;;25.40;10.50;;;;;;5035764;28;20825;-57
2022/05/10 06:00:19;;;;;;;38.90;15.53;;;25.80;9.80;;;;;;5035411;28;20465;-57
2022/05/10 06:02:46;;;;;;;35.87;14.83;;;26.30;9.10;;;;;;5043118;28;20470;-57
2022/05/10 06:05:13;;;;;;;36.63;15.70;;;26.70;8.30;;;;;;5039020;28;20478;-57
2022/05/10 06:07:40;;;;;;;35.30;14.47;;;27.10;7.70;;;;;;5041031;28;20467;-57
2022/05/10 06:10:10;;;;;;;37.20;15.57;;;27.60;6.70;;;;;;5029965;28;21000;-57
2022/05/10 06:12:37;;;;;;;35.17;14.20;;;28.00;6.10;;;;;;5046607;28;20829;-58
2022/05/10 06:15:08;;;;;;;34.73;14.67;;;28.50;6.00;;;;;;5042812;28;20470;-63
2022/05/10 06:17:36;;;;;;;37.40;15.23;;;29.00;5.40;;;;;;5043490;28;20971;-57
2022/05/10 06:20:04;;;;;;;34.23;15.53;;;29.60;4.60;;;;;;5036985;28;21008;-57
2022/05/10 06:22:31;;;;;;;34.90;14.60;;;30.20;3.70;;;;;;5044471;28;20450;-58
2022/05/10 06:24:57;;;;;;;37.23;14.90;;;30.70;2.70;;;;;;5039803;28;20501;-57
2022/05/10 06:27:26;;;;;;;35.63;15.77;;;31.20;2.40;;;;;;5040855;28;20484;-57
2022/05/10 06:29:53;;;;;;;32.93;13.70;;;31.60;1.20;;;;;;5031743;28;20497;-57
2022/05/10 06:32:22;;;;;;;33.80;14.70;;;32.00;1.10;;;;;;5042126;28;20473;-57
2022/05/10 06:34:50;;;;;;;34.20;14.77;;;32.50;1.00;;;;;;5044058;28;20880;-58
2022/05/10 06:39:57;;;;;;;32.20;14.67;;;33.40;1.00;;;;;;5038790;28;20598;-57
2022/05/10 06:42:26;;;;;;;31.50;13.70;;;34.00;1.00;;;;;;5042777;28;20455;-57
2022/05/10 06:44:52;;;;;;;33.50;13.10;;;34.30;1.00;;;;;;5044531;28;20478;-57
2022/05/10 06:47:19;;;;;;;29.90;12.20;;;34.60;1.00;;;;;;5043458;28;20466;-57
2022/05/10 06:49:46;;;;;;;31.67;14.07;;;34.80;1.00;;;;;;5033063;28;20568;-57
2022/05/10 06:52:17;;;;;;;30.53;12.60;;;35.00;1.00;;;;;;5043543;28;20447;-57
2022/05/10 06:54:43;;;;;;;32.03;13.43;;;35.10;1.00;;;;;;5042991;28;20477;-57
2022/05/10 06:57:10;;;;;;;30.67;12.47;;;35.30;1.00;;;;;;5043533;28;20457;-57
2022/05/10 06:59:38;;;;;;;28.13;10.70;;;35.50;1.00;;;;;;5041387;28;20460;-56
2022/05/10 07:02:05;;;;;;;28.10;9.67;;;35.70;1.00;;;;;;5050026;28;20466;-57
2022/05/10 07:04:32;;;;;;;30.10;9.27;;;36.20;1.00;;;;;;5041568;28;20482;-57
2022/05/10 07:06:59;;;;;;;26.80;8.80;;;36.60;1.00;;;;;;5042937;28;20458;-56
2022/05/10 07:09:25;;;;;;;28.63;9.60;;;37.00;1.00;;;;;;5039256;28;20459;-56
2022/05/10 07:11:52;;;;;;;26.80;8.10;;;37.20;1.00;;;;;;5055453;28;20450;-57
2022/05/10 07:14:19;;;;;;;33.13;8.40;;;37.50;1.00;;;;;;5043361;28;20804;-56
2022/05/10 07:16:47;;;;;;;28.87;7.40;;;37.70;1.00;;;;;;5040483;28;20462;-57
2022/05/10 07:19:13;;;;;;;27.90;7.17;;;38.00;1.00;;;;;;5041613;28;20454;-58
2022/05/10 07:21:40;;;;;;;25.70;7.20;;;38.40;1.00;;;;;;5033855;28;21094;-58
2022/05/10 07:24:07;;;;;;;25.60;6.40;;;38.70;1.00;;;;;;5037926;28;20455;-57
2022/05/10 07:26:34;;;;;;;27.87;6.73;;;39.00;1.00;;;;;;5042524;28;20461;-57
2022/05/10 07:29:01;;;;;;;25.50;5.83;;;39.40;1.00;;;;;;5039270;28;20489;-58
2022/05/10 07:31:28;;;;;;;24.70;5.20;;;39.70;1.00;;;;;;5032662;28;20471;-57
2022/05/10 07:33:56;;;;;;;24.20;4.80;;;40.20;1.00;;;;;;5045771;28;20463;-56
2022/05/10 07:36:28;;;;;;;27.70;4.80;;;40.50;1.00;;;;;;5040590;28;20479;-56
2022/05/10 07:38:55;;;;;;;24.70;6.70;;;40.90;1.00;;;;;;5078433;22;20493;-62
2022/05/10 07:41:22;;;;;;;23.40;5.17;;;41.20;1.00;;;;;;5029359;28;20451;-60
2022/05/10 07:43:50;;;;;;;24.60;6.40;;;41.60;1.00;;;;;;5025968;28;20452;-60
2022/05/10 07:46:18;;;;;;;29.87;6.77;;;41.70;1.00;;;;;;5018547;28;20514;-60
2022/05/10 07:48:45;;;;;;;25.50;5.87;;;41.70;1.00;;;;;;5021646;28;20447;-59
2022/05/10 07:51:13;;;;;;;26.87;6.03;;;41.70;1.00;;;;;;5026110;28;20481;-60
2022/05/10 07:53:41;;;;;;;24.10;5.90;;;41.70;1.00;;;;;;5023884;28;20451;-59
2022/05/10 07:56:09;;;;;;;25.40;6.03;;;41.90;1.00;;;;;;5021419;28;21148;-59
2022/05/10 07:58:36;;;;;;;24.60;5.97;;;42.20;1.00;;;;;;5029339;28;21209;-59
2022/05/10 08:01:04;;;;;;;25.47;7.50;;;42.40;1.00;;;;;;5032132;28;20488;-60
2022/05/10 08:03:32;;;;;;;27.73;6.23;;;42.50;1.00;;;;;;5049417;28;20458;-60
2022/05/10 08:06:00;;;;;;;22.97;6.00;;;42.70;1.00;;;;;;5049108;28;20958;-60
2022/05/10 08:08:30;;;;;;;24.00;6.30;;;42.70;1.00;;;;;;5049619;28;20663;-60
2022/05/10 08:10:57;;;;;;;24.50;6.80;;;42.80;1.00;;;;;;5049306;28;20482;-60
2022/05/10 08:13:27;;;;;;;23.10;6.27;;;43.20;1.00;;;;;;5048094;28;20469;-60
2022/05/10 08:15:55;;;;;;;24.60;6.37;;;43.70;1.00;;;;;;5049297;28;20446;-60
2022/05/10 08:18:23;;;;;;;23.90;6.20;;;44.10;1.00;;;;;;5049129;28;20450;-60
2022/05/10 08:20:51;;;;;;;23.83;6.07;;;44.20;1.00;;;;;;5049079;28;20470;-60
2022/05/10 08:23:21;;;;;;;24.30;6.40;;;44.30;1.00;;;;;;5048532;28;20462;-61
2022/05/10 08:25:50;;;;;;;24.67;6.90;;;44.50;1.00;;;;;;5048985;28;20482;-61
2022/05/10 08:28:16;;;;;;;22.80;6.07;;;44.70;1.00;;;;;;5042964;28;20491;-61
2022/05/10 08:30:46;;;;;;;25.10;5.57;;;45.10;1.00;;;;;;5047392;28;20462;-62
2022/05/10 08:33:18;;;;;;;23.97;6.10;;;45.70;1.00;;;;;;5044089;28;21160;-61
2022/05/10 08:35:45;;;;;;;23.97;6.53;;;46.10;1.00;;;;;;5044547;28;20999;-61
2022/05/10 08:38:11;;;;;;;25.23;6.40;;;46.20;1.00;;;;;;5049069;28;20450;-61
2022/05/10 08:40:43;;;;;;;23.87;6.20;;;46.40;1.00;;;;;;5048121;28;21162;-61
2022/05/10 08:43:18;;;;;;;24.70;6.77;;;46.70;1.00;;;;;;5047706;28;20489;-61
2022/05/10 08:45:46;;;;;;;22.00;6.03;;;47.40;1.00;;;;;;5040814;28;20675;-61
2022/05/10 08:48:13;;;;;;;22.20;5.80;;;47.80;1.00;;;;;;5048743;28;20465;-60
2022/05/10 08:50:45;;;;;;;23.73;6.70;;;48.20;1.00;;;;;;5047980;28;20473;-60
2022/05/10 08:53:13;;;;;;;21.83;5.40;;;48.40;1.00;;;;;;5047243;28;20457;-61
2022/05/10 08:55:46;;;;;;;21.70;5.70;;;48.50;1.00;;;;;;5048050;28;20473;-60
2022/05/10 08:58:31;;;;;;;23.00;5.77;;;48.80;1.00;;;;;;5048408;28;20446;-61
2022/05/10 09:01:01;;;;;;;21.67;5.13;;;48.80;1.00;;;;;;5041318;28;20972;-61
2022/05/10 09:03:34;;;;;;;25.10;6.37;;;48.90;1.00;;;;;;5047753;28;20936;-60
2022/05/10 09:06:04;;;;;;;21.83;5.40;;;49.00;1.00;;;;;;5042574;28;20457;-61
2022/05/10 09:08:38;;;;;;;21.20;4.80;;;49.00;1.00;;;;;;5048825;28;20446;-60
2022/05/10 09:11:08;;;;;;;22.37;5.40;;;49.10;1.00;;;;;;5048285;28;20995;-61
2022/05/10 09:13:38;;;;;;;23.30;5.80;;;49.40;1.00;;;;;;5048715;28;20477;-62
2022/05/10 09:16:09;;;;;;;21.07;5.43;;;49.50;1.00;;;;;;5046769;28;20992;-61
2022/05/10 09:18:39;;;;;;;21.17;5.00;;;49.70;1.00;;;;;;5048339;28;20959;-61
2022/05/10 09:21:10;;;;;;;21.83;4.63;;;49.70;1.00;;;;;;5047858;28;20449;-61
2022/05/10 09:23:45;;;;;;;24.50;5.20;;;50.30;1.00;;;;;;5048018;28;20454;-61
2022/05/10 09:26:14;;;;;;;21.67;5.53;;;50.30;1.00;;;;;;5048665;28;20543;-61
2022/05/10 09:28:47;;;;;;;23.50;4.80;;;50.50;1.00;;;;;;5048416;28;20449;-61
2022/05/10 09:37:13;;;;;;;20.70;5.30;;;50.80;1.00;;;;;;5046420;28;21000;-61
2022/05/10 09:39:47;;;;;;;22.53;5.30;;;50.70;1.00;;;;;;5047270;28;20498;-61
2022/05/10 09:42:26;;;;;;;22.20;5.53;;;50.70;1.00;;;;;;5047991;28;20965;-61
2022/05/10 09:45:00;;;;;;;21.60;4.90;;;50.80;1.00;;;;;;5039303;28;20450;-61
2022/05/10 09:47:28;;;;;;;21.20;5.30;;;50.50;1.00;;;;;;5044840;28;20455;-61
2022/05/10 09:49:54;;;;;;;21.47;5.93;;;49.10;1.00;;;;;;5048339;28;20465;-61
2022/05/10 09:52:24;;;;;;;21.17;5.13;;;47.70;1.00;;;;;;5047732;28;20473;-61
2022/05/10 09:54:54;;;;;;;22.10;5.20;;;47.70;1.00;;;;;;5047692;28;20840;-61
2022/05/10 09:57:33;;;;;;;21.33;4.73;;;48.30;1.00;;;;;;5046577;28;20556;-61
2022/05/10 10:00:01;;;;;;;23.90;5.40;;;47.80;1.00;;;;;;5047111;28;20474;-60
2022/05/10 10:02:31;;;;;;;27.90;6.60;;;46.60;1.00;;;;;;5046830;28;20466;-61
2022/05/10 10:04:58;;;;;;;21.50;4.53;;;44.60;1.00;;;;;;5047477;28;20454;-61
2022/05/10 10:07:27;;;;;;;25.90;7.53;;;43.10;1.00;;;;;;5046192;28;20466;-61
2022/05/10 10:09:55;;;;;;;24.60;6.70;;;42.10;1.00;;;;;;5047036;28;20485;-61
2022/05/10 10:12:33;;;;;;;25.17;6.50;;;40.90;1.00;;;;;;5047587;28;20558;-62
2022/05/10 10:15:03;;;;;;;26.10;6.83;;;39.60;1.00;;;;;;5047467;28;20461;-61
2022/05/10 10:17:35;;;;;;;23.83;5.40;;;38.30;1.00;;;;;;5046379;28;20469;-62
2022/05/10 10:20:06;;;;;;;24.00;5.60;;;37.40;1.00;;;;;;5041533;28;20474;-61
2022/05/10 10:22:39;;;;;;;26.40;5.97;;;36.50;1.00;;;;;;5047390;28;20972;-61
2022/05/10 10:25:11;;;;;;;25.87;5.90;;;35.90;1.00;;;;;;5041847;28;20489;-61
2022/05/10 10:27:43;;;;;;;24.40;6.17;;;35.30;1.00;;;;;;5046325;28;20454;-61
2022/05/10 10:30:23;;;;;;;25.70;6.27;;;34.80;1.00;;;;;;5053162;28;20476;-60
2022/05/10 10:32:53;;;;;;;25.83;5.80;;;34.30;1.00;;;;;;5050293;28;20438;-60
2022/05/10 10:35:31;;;;;;;27.23;5.93;;;33.70;1.00;;;;;;5047025;28;20450;-60
2022/05/10 10:38:06;;;;;;;26.93;6.43;;;33.10;1.00;;;;;;5046670;28;21150;-60
2022/05/10 10:40:39;;;;;;;25.47;6.00;;;32.50;1.00;;;;;;5047110;28;20608;-60
2022/05/10 10:43:11;;;;;;;25.30;6.10;;;32.00;1.00;;;;;;5047710;28;20548;-60
2022/05/10 10:45:43;;;;;;;27.07;7.37;;;31.50;1.00;;;;;;5046918;28;20477;-60
2022/05/10 10:48:24;;;;;;;27.00;6.97;;;31.10;1.00;;;;;;5046292;28;20493;-60
2022/05/10 10:50:50;;;;;;;26.47;6.83;;;30.60;1.00;;;;;;5039857;28;20478;-60
2022/05/10 10:53:20;;;;;;;27.40;6.30;;;30.30;1.00;;;;;;5047550;28;20450;-60
2022/05/10 10:55:57;;;;;;;25.90;6.80;;;29.90;1.00;;;;;;5039381;28;20450;-60
2022/05/10 10:58:34;;;;;;;33.07;9.67;;;29.80;1.00;;;;;;5041634;28;20497;-61
2022/05/10 11:01:14;;;;;;;28.27;8.67;;;29.90;2.60;;;;;;5049735;28;20462;-60
2022/05/10 11:03:51;;;;;;;27.33;6.63;;;29.90;2.00;;;;;;5048702;28;20508;-60
2022/05/10 11:06:23;;;;;;;27.03;6.17;;;29.90;1.10;;;;;;5050666;28;20457;-61
2022/05/10 11:09:35;;;;;;;26.50;7.23;;;29.80;1.00;;;;;;5042619;28;20496;-60
2022/05/10 11:12:13;;;;;;;27.90;6.47;;;29.80;1.00;;;;;;5017982;28;20598;-60
2022/05/10 11:14:49;;;;;;;28.60;6.60;;;29.60;1.00;;;;;;5050519;28;20955;-60
2022/05/10 11:17:25;;;;;;;27.40;7.43;;;29.40;1.40;;;;;;5050615;28;20450;-60
2022/05/10 11:20:19;;;;;;;27.47;6.80;;;29.30;2.50;;;;;;5042815;28;20477;-61
2022/05/10 11:22:56;;;;;;;29.07;7.90;;;29.30;2.60;;;;;;5042249;28;20450;-61
2022/05/10 11:25:35;;;;;;;27.30;7.60;;;29.20;2.60;;;;;;5050335;28;20441;-59
2022/05/10 11:28:23;;;;;;;27.40;6.87;;;29.20;2.80;;;;;;5050579;28;20450;-60
2022/05/10 11:30:58;;;;;;;30.97;7.20;;;29.20;2.90;;;;;;5040690;28;20462;-59
2022/05/10 11:33:34;;;;;;;27.23;6.30;;;29.10;2.40;;;;;;5048972;28;20460;-60
2022/05/10 11:36:17;;;;;;;27.03;5.53;;;29.00;1.00;;;;;;5050180;28;20454;-60
2022/05/10 11:39:13;;;;;;;26.63;6.23;;;28.90;1.00;;;;;;5052402;28;20785;-60
2022/05/10 11:41:47;;;;;;;28.27;6.63;;;28.80;1.40;;;;;;5042293;28;20450;-60
2022/05/10 11:44:43;;;;;;;25.50;6.00;;;28.80;2.50;;;;;;5050256;28;20458;-60
2022/05/10 11:47:37;;;;;;;27.90;7.60;;;28.80;2.60;;;;;;5035623;28;20465;-60
2022/05/10 11:53:51;;;;;;;26.40;5.23;;;28.70;3.00;;;;;;5032060;28;21162;-60
2022/05/10 11:56:18;;;;;;;26.17;5.53;;;28.60;2.30;;;;;;5038556;28;21008;-60
2022/05/10 11:58:45;;;;;;;27.17;4.80;;;28.50;1.40;;;;;;5041665;28;20442;-60
2022/05/10 12:01:14;;;;;;;26.80;5.77;;;28.30;1.00;;;;;;5044370;28;20470;-60
2022/05/10 12:04:02;;;;;;;27.43;5.43;;;28.20;1.50;;;;;;5049969;28;20449;-61
2022/05/10 12:06:42;;;;;;;27.00;5.60;;;28.10;1.00;;;;;;5049129;28;20830;-60
2022/05/10 12:09:37;;;;;;;27.87;5.67;;;27.90;1.10;;;;;;5049409;28;20466;-60
2022/05/10 12:12:06;;;;;;;26.43;5.60;;;27.80;1.00;;;;;;5045700;28;20991;-60
2022/05/10 12:24:06;;;;;;;27.83;5.70;;;26.90;2.00;;;;;;5047329;28;20448;-61
2022/05/10 12:26:40;;;;;;;28.27;5.00;;;26.60;1.80;;;;;;5037251;28;20450;-61
2022/05/10 12:29:34;;;;;;;27.60;5.53;;;26.50;2.10;;;;;;5048466;28;20474;-61
2022/05/10 12:32:02;;;;;;;27.17;4.70;;;26.30;2.90;;;;;;5047941;28;20466;-61
2022/05/10 12:34:52;;;;;;;27.60;4.97;;;26.30;2.30;;;;;;5049052;28;20484;-61
2022/05/10 12:37:54;;;;;;;28.00;5.30;;;26.20;1.00;;;;;;5048231;28;20905;-61
2022/05/10 12:40:31;;;;;;;27.73;4.37;;;26.10;2.30;;;;;;5045394;28;20982;-60
2022/05/10 12:43:28;;;;;;;26.40;4.87;;;26.20;3.20;;;;;;5045690;28;21028;-61
2022/05/10 12:46:00;;;;;;;27.43;4.83;;;26.10;2.50;;;;;;5029746;28;20458;-61
2022/05/10 12:48:46;;;;;;;27.90;4.90;;;26.10;2.90;;;;;;5047744;28;20465;-61
2022/05/10 12:51:33;;;;;;;26.83;4.87;;;26.00;1.70;;;;;;5054352;28;20446;-61
2022/05/10 12:54:01;;;;;;;27.30;5.20;;;25.80;1.70;;;;;;5042365;28;20450;-60
2022/05/10 12:56:31;;;;;;;27.10;5.53;;;25.80;2.40;;;;;;5040553;28;20542;-60
2022/05/10 12:59:05;;;;;;;26.63;4.90;;;25.70;2.40;;;;;;5047487;28;20485;-61
2022/05/10 13:01:36;;;;;;;26.70;4.87;;;25.60;2.90;;;;;;5047947;28;20461;-61
2022/05/10 13:04:12;;;;;;;27.77;5.63;;;25.60;2.60;;;;;;5045298;28;20948;-61
2022/05/10 13:06:52;;;;;;;26.47;4.60;;;25.60;2.30;;;;;;5057996;28;20455;-61
2022/05/10 13:09:30;;;;;;;27.80;6.00;;;25.50;3.00;;;;;;5054978;28;20481;-62
2022/05/10 13:12:01;;;;;;;26.97;4.50;;;25.60;4.90;;;;;;5043728;28;20479;-61
2022/05/10 13:14:31;;;;;;;31.40;4.90;;;25.70;4.60;;;;;;5053264;28;20450;-61
2022/05/10 13:17:00;;;;;;;29.43;4.87;;;25.80;4.70;;;;;;5062217;28;20468;-62